Boyd Golding — WDC9793 — position and weather

sailwx.info

Track history (hours):
 
Tides and Currents Weather Stations Pressure Air Temp Water Temp Dewpoint Dewpoint Depression Visibility Wind Speed Wind Dir Waves Ship Positions

Boyd Golding

Owner: Golding Barge Line, Inc., VICKSBURG, MS. More information available from US FCC via Universal Licensing System and Coast Guard Vessel Documentation Center.

Last reported at 2017-Oct-19 08:30 UTC. Time now 2017-Oct-19 08:55 UTC.
Position N 30°10' W 093°19'.

Length 23 m; draft 2.7 m.

Type: . MMSI: 367106750.

Date/timePositionNaut miles runAvg speedWind from/ knotsBaromVisibWave heightAir tempDewpointWater temp
2017-Oct-19 08:30N 30°10' W 093°19'0 0.0
2017-Oct-19 08:00N 30°10' W 093°19'0 0.0
2017-Oct-19 07:30N 30°10' W 093°19'0 0.0
2017-Oct-19 07:00N 30°10' W 093°19'0 0.0
2017-Oct-19 06:30N 30°10' W 093°19'0 0.0
2017-Oct-19 06:00N 30°10' W 093°19'0 0.0
2017-Oct-19 05:30N 30°10' W 093°19'0 0.0
2017-Oct-19 05:00N 30°10' W 093°19'0 0.0
2017-Oct-19 04:30N 30°10' W 093°19'0 0.0
2017-Oct-19 04:00N 30°10' W 093°19'0 0.0
2017-Oct-19 03:30N 30°10' W 093°19'0 0.0
2017-Oct-19 03:00N 30°10' W 093°19'0 0.0
2017-Oct-19 02:30N 30°10' W 093°19'1 1.6
2017-Oct-19 02:00N 30°10' W 093°19'3 5.0
2017-Oct-19 01:30N 30°12' W 093°17'1 2.5
2017-Oct-19 01:00N 30°13' W 093°16'0 0.6
2017-Oct-19 00:30N 30°13' W 093°16'0 0.1
2017-Oct-19 00:00N 30°13' W 093°16'0 0.0
2017-Oct-18 23:30N 30°13' W 093°16'0 0.0
2017-Oct-18 23:00N 30°13' W 093°16'0 0.0
2017-Oct-18 22:30N 30°13' W 093°16'0 0.0
2017-Oct-18 22:00N 30°13' W 093°16'0 0.0
2017-Oct-18 21:30N 30°13' W 093°16'0 0.0
2017-Oct-18 21:00N 30°13' W 093°16'0 0.0
2017-Oct-18 20:30N 30°13' W 093°16'0 0.0
2017-Oct-18 20:00N 30°13' W 093°16'0 0.0
2017-Oct-18 19:30N 30°13' W 093°16'0 0.0
2017-Oct-18 19:00N 30°13' W 093°16'0 0.0
2017-Oct-18 18:30N 30°13' W 093°16'0 0.0
2017-Oct-18 18:00N 30°13' W 093°16'0 0.0
2017-Oct-18 17:30N 30°13' W 093°16'0 0.0
2017-Oct-18 17:00N 30°13' W 093°16'0 0.0
2017-Oct-18 16:30N 30°13' W 093°16'0 0.0
2017-Oct-18 16:00N 30°13' W 093°16'0 0.0
2017-Oct-18 15:30N 30°13' W 093°16'0 0.0
2017-Oct-18 15:00N 30°13' W 093°16'1 1.2
2017-Oct-18 14:00N 30°12' W 093°17'2 3.3
2017-Oct-18 13:30N 30°11' W 093°18'3 5.1
2017-Oct-18 13:00N 30°09' W 093°20'3 5.4
2017-Oct-18 12:30N 30°06' W 093°20'2 4.3
2017-Oct-18 12:00N 30°04' W 093°20'2 3.5
2017-Oct-18 11:30N 30°04' W 093°22'2 4.5
2017-Oct-18 11:00N 30°04' W 093°25'2 4.7
2017-Oct-18 10:30N 30°04' W 093°28'2 4.8
2017-Oct-18 10:00N 30°04' W 093°30'3 4.9
2017-Oct-18 09:29N 30°04' W 093°33'77 4.2
2017-Oct-17 15:27N 29°31' W 094°53'3 7.8
2017-Oct-17 15:00N 29°34' W 094°55'4 7.8
2017-Oct-17 14:30N 29°38' W 094°58'4 7.8
2017-Oct-17 14:00N 29°41' W 094°59'6 6.4
2017-Oct-17 13:08N 29°45' W 095°04'1 5.3
2017-Oct-17 12:52N 29°46' W 095°05'3 6.4
2017-Oct-17 12:25N 29°44' W 095°08'3 6.3
2017-Oct-17 11:59N 29°45' W 095°11'3 5.4
2017-Oct-17 11:30N 29°44' W 095°14'1 1.2
2017-Oct-17 10:53N 29°43' W 095°14'0 0.0
2017-Oct-17 10:30N 29°43' W 095°14'0 0.2
2017-Oct-17 10:00N 29°43' W 095°14'0 0.0
2017-Oct-17 09:30N 29°43' W 095°14'0 0.0
2017-Oct-17 08:59N 29°43' W 095°14'0 0.0
2017-Oct-17 08:30N 29°43' W 095°14'0 0.0
2017-Oct-17 08:00N 29°43' W 095°14'0 0.0
2017-Oct-17 07:28N 29°43' W 095°14'0 0.0
2017-Oct-17 07:00N 29°43' W 095°14'0 0.0
2017-Oct-17 06:30N 29°43' W 095°14'0 0.0
2017-Oct-17 05:43N 29°43' W 095°14'0 0.0
2017-Oct-17 05:25N 29°43' W 095°14'0 0.0
2017-Oct-17 04:59N 29°43' W 095°14'0 0.0
2017-Oct-17 04:29N 29°43' W 095°14'0 0.0
2017-Oct-17 04:00N 29°43' W 095°14'0 0.0
2017-Oct-17 03:30N 29°43' W 095°14'0 0.0
2017-Oct-17 02:59N 29°43' W 095°14'0 0.0
2017-Oct-17 02:30N 29°43' W 095°14'0 0.0
2017-Oct-17 02:00N 29°43' W 095°14'0 0.0
2017-Oct-17 01:28N 29°43' W 095°14'0 0.0
2017-Oct-17 00:58N 29°43' W 095°14'0 0.0
2017-Oct-17 00:29N 29°43' W 095°14'0 0.0
2017-Oct-17 00:00N 29°43' W 095°14'0 0.0
2017-Oct-16 22:13N 29°43' W 095°14'0 0.0
2017-Oct-16 21:58N 29°43' W 095°14'0 0.0
2017-Oct-16 17:33N 29°43' W 095°14'0 0.0
2017-Oct-16 17:20N 29°43' W 095°14'0 0.0
2017-Oct-16 16:59N 29°43' W 095°14'0 0.0
2017-Oct-16 16:27N 29°43' W 095°14'3 0.2
2017-Oct-15 19:53N 29°45' W 095°11'4 6.4
2017-Oct-15 19:18N 29°44' W 095°07'2 6.3
2017-Oct-15 18:55N 29°46' W 095°05'3 6.3
2017-Oct-15 18:22N 29°44' W 095°01'2 5.4
2017-Oct-15 18:00N 29°42' W 095°00'3 6.3
2017-Oct-15 17:30N 29°39' W 094°58'4 7.0
2017-Oct-15 17:00N 29°36' W 094°57'3 5.9
2017-Oct-15 16:30N 29°34' W 094°55'  
2017-Oct-12 14:04N 30°03' W 093°43'0 7.7
2017-Oct-12 14:00N 30°03' W 093°43'4 6.7
2017-Oct-12 13:28N 30°04' W 093°39'3 6.5
2017-Oct-12 13:01N 30°04' W 093°35'3 5.3
2017-Oct-12 12:30N 30°04' W 093°32'3 6.2
2017-Oct-12 12:01N 30°04' W 093°29'3 6.2
2017-Oct-12 11:31N 30°04' W 093°25'3 5.3
2017-Oct-12 11:01N 30°04' W 093°22'3 5.8
2017-Oct-12 10:31N 30°06' W 093°20'4 7.5
2017-Oct-12 10:01N 30°09' W 093°20'0 0.6
2017-Oct-12 09:30N 30°10' W 093°19'0 0.0
2017-Oct-12 09:00N 30°10' W 093°19'0 0.0
2017-Oct-12 08:30N 30°10' W 093°19'0 0.0
2017-Oct-12 08:00N 30°10' W 093°19'0 0.0
2017-Oct-12 07:31N 30°10' W 093°19'0 0.0
2017-Oct-12 07:00N 30°10' W 093°19'0 0.0
2017-Oct-12 06:31N 30°10' W 093°19'0 0.0
2017-Oct-12 06:00N 30°10' W 093°19'0 0.0
2017-Oct-12 05:30N 30°10' W 093°19'0 0.0
2017-Oct-12 05:01N 30°10' W 093°19'0 0.0
2017-Oct-12 04:31N 30°10' W 093°19'0 0.0
2017-Oct-12 04:01N 30°10' W 093°19'0 0.0
2017-Oct-12 03:30N 30°10' W 093°19'0 0.0
2017-Oct-12 03:00N 30°10' W 093°19'0 0.0
2017-Oct-12 02:31N 30°10' W 093°19'0 0.0
2017-Oct-12 02:01N 30°10' W 093°19'0 0.0
2017-Oct-12 01:31N 30°10' W 093°19'0 0.0
2017-Oct-12 01:01N 30°10' W 093°19'0 0.0
2017-Oct-12 00:31N 30°10' W 093°19'0 0.0
2017-Oct-12 00:01N 30°10' W 093°19'0 0.0
2017-Oct-11 23:31N 30°10' W 093°19'0 0.0
2017-Oct-11 23:01N 30°10' W 093°19'0 0.0
2017-Oct-11 22:30N 30°10' W 093°19'0 0.0
2017-Oct-11 22:01N 30°10' W 093°19'0 0.0
2017-Oct-11 21:31N 30°10' W 093°19'0 0.0
2017-Oct-11 21:01N 30°10' W 093°19'0 0.0
2017-Oct-11 20:31N 30°10' W 093°19'0 0.0
2017-Oct-11 20:01N 30°10' W 093°19'0 0.0
2017-Oct-11 19:31N 30°10' W 093°19'0 0.0
2017-Oct-11 19:01N 30°10' W 093°19'0 0.0
2017-Oct-11 18:30N 30°10' W 093°19'0 0.0
2017-Oct-11 18:00N 30°10' W 093°19'0 0.0
2017-Oct-11 17:31N 30°10' W 093°19'0 0.0
2017-Oct-11 17:01N 30°10' W 093°19'5 0.3
2017-Oct-11 00:00N 30°14' W 093°16'0 0.0
2017-Oct-10 23:31N 30°14' W 093°16'0 0.0
2017-Oct-10 23:01N 30°14' W 093°16'0 0.0
2017-Oct-10 22:30N 30°14' W 093°16'0 0.0
2017-Oct-10 22:01N 30°14' W 093°16'0 0.0
2017-Oct-10 21:31N 30°14' W 093°16'0 0.0
2017-Oct-10 21:00N 30°14' W 093°16'0 0.0
2017-Oct-10 20:30N 30°14' W 093°16'0 0.0
2017-Oct-10 20:01N 30°14' W 093°16'0 0.0
2017-Oct-10 19:31N 30°14' W 093°16'0 0.0
2017-Oct-10 19:00N 30°14' W 093°16'0 0.0
2017-Oct-10 18:30N 30°14' W 093°16'0 0.0
2017-Oct-10 18:01N 30°14' W 093°16'0 0.0
2017-Oct-10 17:30N 30°14' W 093°16'0 0.9
2017-Oct-10 17:00N 30°14' W 093°15'1 1.6
2017-Oct-10 16:31N 30°13' W 093°16'0 0.0
2017-Oct-10 16:00N 30°13' W 093°16'1 1.6
2017-Oct-10 15:29N 30°14' W 093°15'0 0.9
2017-Oct-10 15:01N 30°14' W 093°16'0 0.0
2017-Oct-10 14:01N 30°14' W 093°16'0 0.0
2017-Oct-10 13:31N 30°14' W 093°16'0 0.0
2017-Oct-10 13:01N 30°14' W 093°16'0 1.0
2017-Oct-10 12:31N 30°13' W 093°16'0 0.9
2017-Oct-10 12:00N 30°13' W 093°16'1 1.2
2017-Oct-10 11:31N 30°12' W 093°16'3 5.9
2017-Oct-10 11:01N 30°11' W 093°19'3 5.4
2017-Oct-10 10:31N 30°08' W 093°20'3 5.6
2017-Oct-10 10:00N 30°06' W 093°20'2 3.9
2017-Oct-10 09:31N 30°04' W 093°21'1 2.6
2017-Oct-10 09:00N 30°04' W 093°22'2 3.6
2017-Oct-10 08:31N 30°04' W 093°24'2 4.0
2017-Oct-10 08:00N 30°04' W 093°27'2 4.0
2017-Oct-10 07:31N 30°04' W 093°29'2 4.0
2017-Oct-10 07:01N 30°04' W 093°31'3 4.0
2017-Oct-10 06:16N 30°04' W 093°35'75 4.1
2017-Oct-09 11:52N 29°30' W 094°52'2 6.8
2017-Oct-09 11:30N 29°32' W 094°54'3 6.6
2017-Oct-09 11:00N 29°34' W 094°56'3 6.6
2017-Oct-09 10:30N 29°37' W 094°58'3 6.7
2017-Oct-09 10:00N 29°41' W 094°59'3 6.3
2017-Oct-09 09:29N 29°43' W 095°01'  
Track history (hours):
 
Tides and Currents Weather Stations Pressure Air Temp Water Temp Dewpoint Dewpoint Depression Visibility Wind Speed Wind Dir Waves Ship Positions

Boyd Golding

Owner: Golding Barge Line, Inc., VICKSBURG, MS. More information available from US FCC via Universal Licensing System and Coast Guard Vessel Documentation Center.

Last reported at 2017-Oct-19 08:30 UTC. Time now 2017-Oct-19 08:55 UTC.
Position N 30°10' W 093°19'.

Length 23 m; draft 2.7 m.

Type: . MMSI: 367106750.

Date/timePositionNaut miles runAvg speedWind from/ knotsBaromVisibWave heightAir tempDewpointWater temp
2017-Oct-19 08:30N 30°10' W 093°19'0 0.0
2017-Oct-19 08:00N 30°10' W 093°19'0 0.0
2017-Oct-19 07:30N 30°10' W 093°19'0 0.0
2017-Oct-19 07:00N 30°10' W 093°19'0 0.0
2017-Oct-19 06:30N 30°10' W 093°19'0 0.0
2017-Oct-19 06:00N 30°10' W 093°19'0 0.0
2017-Oct-19 05:30N 30°10' W 093°19'0 0.0
2017-Oct-19 05:00N 30°10' W 093°19'0 0.0
2017-Oct-19 04:30N 30°10' W 093°19'0 0.0
2017-Oct-19 04:00N 30°10' W 093°19'0 0.0
2017-Oct-19 03:30N 30°10' W 093°19'0 0.0
2017-Oct-19 03:00N 30°10' W 093°19'0 0.0
2017-Oct-19 02:30N 30°10' W 093°19'1 1.6
2017-Oct-19 02:00N 30°10' W 093°19'3 5.0
2017-Oct-19 01:30N 30°12' W 093°17'1 2.5
2017-Oct-19 01:00N 30°13' W 093°16'0 0.6
2017-Oct-19 00:30N 30°13' W 093°16'0 0.1
2017-Oct-19 00:00N 30°13' W 093°16'0 0.0
2017-Oct-18 23:30N 30°13' W 093°16'0 0.0
2017-Oct-18 23:00N 30°13' W 093°16'0 0.0
2017-Oct-18 22:30N 30°13' W 093°16'0 0.0
2017-Oct-18 22:00N 30°13' W 093°16'0 0.0
2017-Oct-18 21:30N 30°13' W 093°16'0 0.0
2017-Oct-18 21:00N 30°13' W 093°16'0 0.0
2017-Oct-18 20:30N 30°13' W 093°16'0 0.0
2017-Oct-18 20:00N 30°13' W 093°16'0 0.0
2017-Oct-18 19:30N 30°13' W 093°16'0 0.0
2017-Oct-18 19:00N 30°13' W 093°16'0 0.0
2017-Oct-18 18:30N 30°13' W 093°16'0 0.0
2017-Oct-18 18:00N 30°13' W 093°16'0 0.0
2017-Oct-18 17:30N 30°13' W 093°16'0 0.0
2017-Oct-18 17:00N 30°13' W 093°16'0 0.0
2017-Oct-18 16:30N 30°13' W 093°16'0 0.0
2017-Oct-18 16:00N 30°13' W 093°16'0 0.0
2017-Oct-18 15:30N 30°13' W 093°16'0 0.0
2017-Oct-18 15:00N 30°13' W 093°16'1 1.2
2017-Oct-18 14:00N 30°12' W 093°17'2 3.3
2017-Oct-18 13:30N 30°11' W 093°18'3 5.1
2017-Oct-18 13:00N 30°09' W 093°20'3 5.4
2017-Oct-18 12:30N 30°06' W 093°20'2 4.3
2017-Oct-18 12:00N 30°04' W 093°20'2 3.5
2017-Oct-18 11:30N 30°04' W 093°22'2 4.5
2017-Oct-18 11:00N 30°04' W 093°25'2 4.7
2017-Oct-18 10:30N 30°04' W 093°28'2 4.8
2017-Oct-18 10:00N 30°04' W 093°30'3 4.9
2017-Oct-18 09:29N 30°04' W 093°33'77 4.2
2017-Oct-17 15:27N 29°31' W 094°53'3 7.8
2017-Oct-17 15:00N 29°34' W 094°55'4 7.8
2017-Oct-17 14:30N 29°38' W 094°58'4 7.8
2017-Oct-17 14:00N 29°41' W 094°59'6 6.4
2017-Oct-17 13:08N 29°45' W 095°04'1 5.3
2017-Oct-17 12:52N 29°46' W 095°05'3 6.4
2017-Oct-17 12:25N 29°44' W 095°08'3 6.3
2017-Oct-17 11:59N 29°45' W 095°11'3 5.4
2017-Oct-17 11:30N 29°44' W 095°14'1 1.2
2017-Oct-17 10:53N 29°43' W 095°14'0 0.0
2017-Oct-17 10:30N 29°43' W 095°14'0 0.2
2017-Oct-17 10:00N 29°43' W 095°14'0 0.0
2017-Oct-17 09:30N 29°43' W 095°14'0 0.0
2017-Oct-17 08:59N 29°43' W 095°14'0 0.0
2017-Oct-17 08:30N 29°43' W 095°14'0 0.0
2017-Oct-17 08:00N 29°43' W 095°14'0 0.0
2017-Oct-17 07:28N 29°43' W 095°14'0 0.0
2017-Oct-17 07:00N 29°43' W 095°14'0 0.0
2017-Oct-17 06:30N 29°43' W 095°14'0 0.0
2017-Oct-17 05:43N 29°43' W 095°14'0 0.0
2017-Oct-17 05:25N 29°43' W 095°14'0 0.0
2017-Oct-17 04:59N 29°43' W 095°14'0 0.0
2017-Oct-17 04:29N 29°43' W 095°14'0 0.0
2017-Oct-17 04:00N 29°43' W 095°14'0 0.0
2017-Oct-17 03:30N 29°43' W 095°14'0 0.0
2017-Oct-17 02:59N 29°43' W 095°14'0 0.0
2017-Oct-17 02:30N 29°43' W 095°14'0 0.0
2017-Oct-17 02:00N 29°43' W 095°14'0 0.0
2017-Oct-17 01:28N 29°43' W 095°14'0 0.0
2017-Oct-17 00:58N 29°43' W 095°14'0 0.0
2017-Oct-17 00:29N 29°43' W 095°14'0 0.0
2017-Oct-17 00:00N 29°43' W 095°14'0 0.0
2017-Oct-16 22:13N 29°43' W 095°14'0 0.0
2017-Oct-16 21:58N 29°43' W 095°14'0 0.0
2017-Oct-16 17:33N 29°43' W 095°14'0 0.0
2017-Oct-16 17:20N 29°43' W 095°14'0 0.0
2017-Oct-16 16:59N 29°43' W 095°14'0 0.0
2017-Oct-16 16:27N 29°43' W 095°14'3 0.2
2017-Oct-15 19:53N 29°45' W 095°11'4 6.4
2017-Oct-15 19:18N 29°44' W 095°07'2 6.3
2017-Oct-15 18:55N 29°46' W 095°05'3 6.3
2017-Oct-15 18:22N 29°44' W 095°01'2 5.4
2017-Oct-15 18:00N 29°42' W 095°00'3 6.3
2017-Oct-15 17:30N 29°39' W 094°58'4 7.0
2017-Oct-15 17:00N 29°36' W 094°57'3 5.9
2017-Oct-15 16:30N 29°34' W 094°55'  
2017-Oct-12 14:04N 30°03' W 093°43'0 7.7
2017-Oct-12 14:00N 30°03' W 093°43'4 6.7
2017-Oct-12 13:28N 30°04' W 093°39'3 6.5
2017-Oct-12 13:01N 30°04' W 093°35'3 5.3
2017-Oct-12 12:30N 30°04' W 093°32'3 6.2
2017-Oct-12 12:01N 30°04' W 093°29'3 6.2
2017-Oct-12 11:31N 30°04' W 093°25'3 5.3
2017-Oct-12 11:01N 30°04' W 093°22'3 5.8
2017-Oct-12 10:31N 30°06' W 093°20'4 7.5
2017-Oct-12 10:01N 30°09' W 093°20'0 0.6
2017-Oct-12 09:30N 30°10' W 093°19'0 0.0
2017-Oct-12 09:00N 30°10' W 093°19'0 0.0
2017-Oct-12 08:30N 30°10' W 093°19'0 0.0
2017-Oct-12 08:00N 30°10' W 093°19'0 0.0
2017-Oct-12 07:31N 30°10' W 093°19'0 0.0
2017-Oct-12 07:00N 30°10' W 093°19'0 0.0
2017-Oct-12 06:31N 30°10' W 093°19'0 0.0
2017-Oct-12 06:00N 30°10' W 093°19'0 0.0
2017-Oct-12 05:30N 30°10' W 093°19'0 0.0
2017-Oct-12 05:01N 30°10' W 093°19'0 0.0
2017-Oct-12 04:31N 30°10' W 093°19'0 0.0
2017-Oct-12 04:01N 30°10' W 093°19'0 0.0
2017-Oct-12 03:30N 30°10' W 093°19'0 0.0
2017-Oct-12 03:00N 30°10' W 093°19'0 0.0
2017-Oct-12 02:31N 30°10' W 093°19'0 0.0
2017-Oct-12 02:01N 30°10' W 093°19'0 0.0
2017-Oct-12 01:31N 30°10' W 093°19'0 0.0
2017-Oct-12 01:01N 30°10' W 093°19'0 0.0
2017-Oct-12 00:31N 30°10' W 093°19'0 0.0
2017-Oct-12 00:01N 30°10' W 093°19'0 0.0
2017-Oct-11 23:31N 30°10' W 093°19'0 0.0
2017-Oct-11 23:01N 30°10' W 093°19'0 0.0
2017-Oct-11 22:30N 30°10' W 093°19'0 0.0
2017-Oct-11 22:01N 30°10' W 093°19'0 0.0
2017-Oct-11 21:31N 30°10' W 093°19'0 0.0
2017-Oct-11 21:01N 30°10' W 093°19'0 0.0
2017-Oct-11 20:31N 30°10' W 093°19'0 0.0
2017-Oct-11 20:01N 30°10' W 093°19'0 0.0
2017-Oct-11 19:31N 30°10' W 093°19'0 0.0
2017-Oct-11 19:01N 30°10' W 093°19'0 0.0
2017-Oct-11 18:30N 30°10' W 093°19'0 0.0
2017-Oct-11 18:00N 30°10' W 093°19'0 0.0
2017-Oct-11 17:31N 30°10' W 093°19'0 0.0
2017-Oct-11 17:01N 30°10' W 093°19'5 0.3
2017-Oct-11 00:00N 30°14' W 093°16'0 0.0
2017-Oct-10 23:31N 30°14' W 093°16'0 0.0
2017-Oct-10 23:01N 30°14' W 093°16'0 0.0
2017-Oct-10 22:30N 30°14' W 093°16'0 0.0
2017-Oct-10 22:01N 30°14' W 093°16'0 0.0
2017-Oct-10 21:31N 30°14' W 093°16'0 0.0
2017-Oct-10 21:00N 30°14' W 093°16'0 0.0
2017-Oct-10 20:30N 30°14' W 093°16'0 0.0
2017-Oct-10 20:01N 30°14' W 093°16'0 0.0
2017-Oct-10 19:31N 30°14' W 093°16'0 0.0
2017-Oct-10 19:00N 30°14' W 093°16'0 0.0
2017-Oct-10 18:30N 30°14' W 093°16'0 0.0
2017-Oct-10 18:01N 30°14' W 093°16'0 0.0
2017-Oct-10 17:30N 30°14' W 093°16'0 0.9
2017-Oct-10 17:00N 30°14' W 093°15'1 1.6
2017-Oct-10 16:31N 30°13' W 093°16'0 0.0
2017-Oct-10 16:00N 30°13' W 093°16'1 1.6
2017-Oct-10 15:29N 30°14' W 093°15'0 0.9
2017-Oct-10 15:01N 30°14' W 093°16'0 0.0
2017-Oct-10 14:01N 30°14' W 093°16'0 0.0
2017-Oct-10 13:31N 30°14' W 093°16'0 0.0
2017-Oct-10 13:01N 30°14' W 093°16'0 1.0
2017-Oct-10 12:31N 30°13' W 093°16'0 0.9
2017-Oct-10 12:00N 30°13' W 093°16'1 1.2
2017-Oct-10 11:31N 30°12' W 093°16'3 5.9
2017-Oct-10 11:01N 30°11' W 093°19'3 5.4
2017-Oct-10 10:31N 30°08' W 093°20'3 5.6
2017-Oct-10 10:00N 30°06' W 093°20'2 3.9
2017-Oct-10 09:31N 30°04' W 093°21'1 2.6
2017-Oct-10 09:00N 30°04' W 093°22'2 3.6
2017-Oct-10 08:31N 30°04' W 093°24'2 4.0
2017-Oct-10 08:00N 30°04' W 093°27'2 4.0
2017-Oct-10 07:31N 30°04' W 093°29'2 4.0
2017-Oct-10 07:01N 30°04' W 093°31'3 4.0
2017-Oct-10 06:16N 30°04' W 093°35'75 4.1
2017-Oct-09 11:52N 29°30' W 094°52'2 6.8
2017-Oct-09 11:30N 29°32' W 094°54'3 6.6
2017-Oct-09 11:00N 29°34' W 094°56'3 6.6
2017-Oct-09 10:30N 29°37' W 094°58'3 6.7
2017-Oct-09 10:00N 29°41' W 094°59'3 6.3
2017-Oct-09 09:29N 29°43' W 095°01'  

Dump ship's entire track history